Time;durP1;ratioP1;P1;durP2;ratioP2;P2;SDS_P1;SDS_P2;PMS_P1;PMS_P2;Temp;Humidity;BMP_temperature;BMP_pressure;BME280_temperature;BME280_humidity;BME280_pressure;Samples;Min_cycle;Max_cycle;Signal;HPM_P1;HPM_P2
2022/04/25 00:01:59;;;;;;;16.30;5.40;;;;;;;15.53;100.00;62460.38;5113813;28;20248;-73
2022/04/25 00:04:26;;;;;;;24.13;5.53;;;;;;;15.40;100.00;62443.78;5113738;28;20198;-72
2022/04/25 00:06:55;;;;;;;18.50;4.67;;;;;;;15.32;100.00;62437.19;5113381;28;20661;-72
2022/04/25 00:09:22;;;;;;;26.97;4.93;;;;;;;15.20;100.00;62424.81;5113452;28;20195;-73
2022/04/25 00:11:49;;;;;;;20.27;4.70;;;;;;;15.17;100.00;62422.13;5113315;28;20726;-71
2022/04/25 00:14:15;;;;;;;29.13;5.53;;;;;;;15.23;100.00;62428.06;5113193;28;20195;-72
2022/04/25 00:16:42;;;;;;;19.27;5.10;;;;;;;15.23;100.00;62422.91;5113399;28;20257;-71
2022/04/25 00:19:09;;;;;;;15.53;4.63;;;;;;;15.11;100.00;62417.72;5113436;27;20195;-72
2022/04/25 00:21:37;;;;;;;24.73;5.10;;;;;;;14.84;100.00;62389.19;5113142;28;20604;-72
2022/04/25 00:24:06;;;;;;;25.27;6.07;;;;;;;14.70;100.00;62371.03;5113248;28;20199;-71
2022/04/25 00:26:32;;;;;;;20.70;5.47;;;;;;;14.78;100.00;62379.63;5113063;28;20264;-71
2022/04/25 00:28:59;;;;;;;22.70;5.17;;;;;;;14.70;100.00;62376.16;5113023;28;20319;-71
2022/04/25 00:31:27;;;;;;;21.23;5.63;;;;;;;14.73;100.00;62379.38;5113169;28;20231;-72
2022/04/25 00:33:54;;;;;;;23.83;5.37;;;;;;;14.69;100.00;62372.53;5113352;28;20244;-73
2022/04/25 00:36:21;;;;;;;33.57;6.00;;;;;;;14.77;100.00;62381.13;5112751;28;20222;-71
2022/04/25 00:38:48;;;;;;;20.57;5.93;;;;;;;14.88;100.00;62395.50;5112788;28;20619;-72
2022/04/25 00:41:16;;;;;;;32.30;5.73;;;;;;;14.81;100.00;62388.00;5113660;28;20198;-71
2022/04/25 00:43:43;;;;;;;24.23;5.93;;;;;;;14.79;100.00;62380.72;5113847;28;20321;-72
2022/04/25 00:46:20;;;;;;;18.07;5.40;;;;;;;14.86;100.00;62388.22;5104835;28;20203;-71
2022/04/25 00:48:47;;;;;;;27.27;7.20;;;;;;;14.73;100.00;62374.25;5112567;28;20195;-72
2022/04/25 00:51:14;;;;;;;27.67;5.27;;;;;;;14.78;100.00;62382.19;5112498;28;20203;-71
2022/04/25 00:53:40;;;;;;;24.13;6.40;;;;;;;14.76;100.00;62378.03;5112600;28;20620;-72
2022/04/25 00:56:10;;;;;;;20.27;5.57;;;;;;;14.58;100.00;62358.13;5112042;28;20226;-72
2022/04/25 00:58:38;;;;;;;25.43;5.70;;;;;;;14.67;100.00;62367.81;5112439;28;20199;-71
2022/04/25 01:01:05;;;;;;;25.67;6.60;;;;;;;14.64;100.00;62367.13;5112535;28;20263;-72
2022/04/25 01:03:32;;;;;;;17.27;5.80;;;;;;;14.64;100.00;62364.56;5112449;28;20256;-72
2022/04/25 01:05:59;;;;;;;21.77;5.87;;;;;;;14.75;100.00;62376.41;5112428;28;20263;-73
2022/04/25 01:08:26;;;;;;;22.73;5.47;;;;;;;14.80;100.00;62381.78;5112234;28;20194;-72
2022/04/25 01:10:53;;;;;;;16.37;6.23;;;;;;;14.69;100.00;62372.53;5112566;28;20277;-72
2022/04/25 01:13:20;;;;;;;28.57;6.20;;;;;;;14.68;100.00;62368.88;5112386;28;20312;-71
2022/04/25 01:15:49;;;;;;;21.80;6.10;;;;;;;14.79;100.00;62383.28;5112253;28;20230;-73
2022/04/25 01:18:17;;;;;;;27.97;6.03;;;;;;;14.64;100.00;62364.56;5112209;28;20199;-72
2022/04/25 01:20:43;;;;;;;20.97;5.83;;;;;;;14.68;100.00;62368.88;5111944;28;20679;-72
2022/04/25 01:28:43;;;;;;;25.00;5.70;;;;;;;14.33;100.00;62334.31;5112455;28;20328;-72
2022/04/25 01:31:10;;;;;;;24.50;6.47;;;;;;;14.31;100.00;62334.75;5111793;28;20231;-71
2022/04/25 01:33:37;;;;;;;19.40;5.93;;;;;;;14.45;100.00;62349.28;5111881;28;20623;-73
2022/04/25 01:36:04;;;;;;;25.97;5.70;;;;;;;14.38;100.00;62337.16;5111636;28;20218;-72
2022/04/25 01:38:33;;;;;;;27.40;6.80;;;;;;;14.42;100.00;62341.44;5112266;28;20199;-71
2022/04/25 01:41:00;;;;;;;21.03;6.17;;;;;;;14.35;100.00;62334.47;5114711;28;20195;-73
2022/04/25 01:43:27;;;;;;;24.73;6.03;;;;;;;14.34;100.00;62333.41;5112043;28;20194;-73
2022/04/25 01:45:53;;;;;;;22.07;6.20;;;;;;;14.34;100.00;62333.41;5111925;28;20619;-72
2022/04/25 01:48:21;;;;;;;23.43;6.20;;;;;;;14.28;100.00;62326.94;5111741;28;20203;-72
2022/04/25 01:50:49;;;;;;;30.27;7.47;;;;;;;14.41;100.00;62339.84;5110935;28;20225;-73
2022/04/25 01:53:18;;;;;;;21.33;5.87;;;;;;;14.31;100.00;62330.16;5110745;28;20680;-72
2022/04/25 01:55:47;;;;;;;19.43;7.73;;;;;;;14.24;100.00;62322.63;5111868;28;20243;-72
2022/04/25 01:58:14;;;;;;;19.83;7.43;;;;;;;14.22;100.00;62320.47;5113764;28;20199;-72
2022/04/25 02:00:41;;;;;;;24.33;6.60;;;;;;;14.30;100.00;62326.53;5115832;28;20198;-71
2022/04/25 02:03:09;;;;;;;24.50;6.93;;;;;;;13.94;100.00;62290.38;5116047;28;20199;-72
2022/04/25 02:05:36;;;;;;;34.60;9.17;;;;;;;14.10;100.00;62307.03;5116073;28;20195;-72
2022/04/25 02:08:03;;;;;;;36.10;10.20;;;;;;;14.18;100.00;62315.63;5115657;28;20598;-72
2022/04/25 02:10:30;;;;;;;27.73;11.20;;;;;;;14.14;100.00;62313.88;5114779;28;20203;-72
2022/04/25 02:12:58;;;;;;;38.20;8.73;;;;;;;13.61;100.00;62252.34;5115443;28;20248;-72
2022/04/25 02:15:25;;;;;;;31.13;10.80;;;;;;;14.18;100.00;62315.63;5115433;28;20263;-70
2022/04/25 02:17:52;;;;;;;31.73;11.90;;;;;;;13.99;100.00;62295.72;5115741;28;20226;-73
2022/04/25 02:20:19;;;;;;;33.20;13.07;;;;;;;13.90;100.00;62291.19;5115354;28;20694;-73
2022/04/25 02:22:46;;;;;;;34.23;13.30;;;;;;;13.91;100.00;62291.72;5115590;28;20199;-72
2022/04/25 02:25:13;;;;;;;38.43;13.43;;;;;;;13.83;100.00;62281.09;5115475;28;20199;-72
2022/04/25 02:27:41;;;;;;;36.13;12.57;;;;;;;13.83;100.00;62278.53;5115449;28;20203;-73
2022/04/25 02:30:11;;;;;;;35.93;12.73;;;;;;;13.89;100.00;62287.53;5115716;28;20283;-72
2022/04/25 02:32:38;;;;;;;34.40;10.67;;;;;;;13.97;100.00;62293.59;5115412;28;20203;-72
2022/04/25 02:35:06;;;;;;;34.50;9.47;;;;;;;13.82;100.00;62280.03;5115081;28;20206;-73
2022/04/25 02:37:33;;;;;;;24.27;7.53;;;;;;;13.81;100.00;62280.97;5115042;28;20275;-71
2022/04/25 02:39:59;;;;;;;34.50;8.90;;;;;;;13.76;100.00;62273.03;5114867;28;20279;-71
2022/04/25 02:42:27;;;;;;;30.47;7.03;;;;;;;13.70;100.00;62264.56;5115074;28;20271;-72
2022/04/25 02:44:53;;;;;;;21.17;5.27;;;;;;;13.80;100.00;62275.31;5115047;28;20653;-73
2022/04/25 02:47:21;;;;;;;19.33;5.40;;;;;;;13.58;100.00;62254.75;5115120;28;20722;-72
2022/04/25 02:49:48;;;;;;;25.43;6.00;;;;;;;13.63;100.00;62257.03;5115156;28;20195;-73
2022/04/25 02:52:15;;;;;;;23.27;5.20;;;;;;;13.67;100.00;62261.34;5114974;28;20198;-71
2022/04/25 02:54:42;;;;;;;27.63;6.50;;;;;;;13.67;100.00;62256.22;5114737;28;20255;-71
2022/04/25 02:57:08;;;;;;;28.50;6.60;;;;;;;13.76;100.00;62268.47;5114597;28;20234;-71
2022/04/25 02:59:35;;;;;;;25.13;6.27;;;;;;;13.58;100.00;62254.75;5114735;28;20698;-72
2022/04/25 03:02:02;;;;;;;24.57;7.67;;;;;;;13.38;100.00;62230.19;5114717;28;20203;-72
2022/04/25 03:04:30;;;;;;;32.57;7.50;;;;;;;13.35;100.00;62226.97;5114714;28;20742;-71
2022/04/25 03:06:57;;;;;;;25.20;7.23;;;;;;;13.31;100.00;62222.66;5114756;28;20203;-71
2022/04/25 03:09:24;;;;;;;25.43;7.30;;;;;;;13.38;100.00;62230.19;5112484;28;20195;-71
2022/04/25 03:11:51;;;;;;;33.67;8.30;;;;;;;13.38;100.00;62232.75;5114784;28;20264;-71
2022/04/25 03:14:18;;;;;;;25.13;8.30;;;;;;;12.83;100.00;62171.63;5113984;28;20199;-72
2022/04/25 03:16:45;;;;;;;26.50;7.90;;;;;;;13.17;100.00;62210.19;5114375;28;20218;-73
2022/04/25 03:19:11;;;;;;;27.13;7.83;;;;;;;13.20;100.00;62215.97;5114488;28;20203;-72
2022/04/25 03:21:40;;;;;;;20.37;6.87;;;;;;;13.08;100.00;62203.09;5114214;28;20215;-72
2022/04/25 03:24:07;;;;;;;28.13;7.47;;;;;;;13.09;100.00;62201.59;5114213;28;20191;-71
2022/04/25 03:26:33;;;;;;;27.27;7.60;;;;;;;12.87;100.00;62177.94;5114411;28;20202;-72
2022/04/25 03:29:02;;;;;;;31.37;7.63;;;;;;;12.83;100.00;62171.63;5114617;28;20254;-71
2022/04/25 03:31:29;;;;;;;20.53;8.03;;;;;;;12.76;100.00;62166.16;5114031;28;20235;-72
2022/04/25 03:33:56;;;;;;;25.67;7.90;;;;;;;12.63;100.00;62148.16;5114063;28;20649;-71
2022/04/25 03:36:22;;;;;;;25.73;7.90;;;;;;;12.77;100.00;62164.66;5113858;28;20259;-73
2022/04/25 03:38:53;;;;;;;22.77;7.07;;;;;;;12.80;100.00;62167.88;5114028;28;20190;-73
2022/04/25 03:41:20;;;;;;;19.53;6.40;;;;;;;12.88;100.00;62174.44;5114142;28;20199;-72
2022/04/25 03:43:47;;;;;;;17.83;7.13;;;;;;;13.01;100.00;62187.88;5112764;28;20203;-73
2022/04/25 03:46:14;;;;;;;23.07;9.00;;;;;;;12.99;100.00;62190.84;5113894;28;20202;-71
2022/04/25 03:48:44;;;;;;;21.47;7.73;;;;;;;13.07;100.00;62200.00;5117224;28;20264;-71
2022/04/25 03:51:11;;;;;;;21.47;6.77;;;;;;;12.96;100.00;62185.06;5119800;28;20206;-71
2022/04/25 03:53:38;;;;;;;24.30;7.40;;;;;;;12.87;100.00;62175.94;5114721;28;20251;-71
2022/04/25 03:58:51;;;;;;;23.37;7.73;;;;;;;13.01;100.00;62195.53;5113867;28;20680;-72
2022/04/25 04:01:18;;;;;;;29.23;8.10;;;;;;;13.03;100.00;62192.56;5113251;28;20218;-72
2022/04/25 04:03:45;;;;;;;22.17;7.73;;;;;;;13.10;100.00;62203.19;5113584;28;20195;-71
2022/04/25 04:06:12;;;;;;;24.87;7.47;;;;;;;13.03;100.00;62192.56;5113556;28;20634;-72
2022/04/25 04:08:39;;;;;;;24.80;7.90;;;;;;;12.79;100.00;62172.47;5113895;28;20214;-71
2022/04/25 04:11:07;;;;;;;28.83;7.63;;;;;;;13.27;100.00;62218.38;5113536;28;20199;-71
2022/04/25 04:13:34;;;;;;;29.57;7.80;;;;;;;13.03;100.00;62193.13;5113489;28;20275;-71
2022/04/25 04:16:03;;;;;;;26.17;7.47;;;;;;;13.27;100.00;62218.38;5113164;28;20199;-72
2022/04/25 04:18:29;;;;;;;24.47;7.97;;;;;;;13.12;100.00;62202.78;5113435;28;20235;-72
2022/04/25 04:20:56;;;;;;;32.83;7.83;;;;;;;12.94;100.00;62182.91;5112230;28;20646;-72
2022/04/25 04:23:23;;;;;;;24.00;7.90;;;;;;;13.46;100.00;62238.78;5113161;28;20673;-71
2022/04/25 04:25:50;;;;;;;24.33;6.97;;;;;;;13.70;100.00;62264.56;5113422;28;20248;-73
2022/04/25 04:28:18;;;;;;;22.23;7.50;;;;;;;13.59;100.00;62252.75;5113410;28;20290;-71
2022/04/25 04:30:46;;;;;;;33.07;8.37;;;;;;;13.69;100.00;62262.94;5113377;28;20239;-72
2022/04/25 04:33:13;;;;;;;27.33;8.83;;;;;;;13.55;100.00;62253.56;5113843;28;20221;-73
2022/04/25 04:38:24;;;;;;;21.33;8.23;;;;;;;13.81;100.00;62276.38;5113060;28;20311;-72
2022/04/25 04:40:51;;;;;;;28.70;8.30;;;;;;;13.75;100.00;62269.94;5112675;28;20203;-72
2022/04/25 04:43:19;;;;;;;29.00;8.17;;;;;;;13.99;100.00;62292.63;5112689;28;20195;-72
2022/04/25 04:45:45;;;;;;;29.83;8.37;;;;;;;14.01;100.00;62300.44;5112990;28;20266;-72
2022/04/25 04:48:14;;;;;;;24.97;7.90;;;;;;;14.11;100.00;62308.63;5112664;28;20203;-72
2022/04/25 04:50:40;;;;;;;24.27;8.70;;;;;;;14.40;100.00;62339.31;5112615;28;20203;-72
2022/04/25 04:53:08;;;;;;;20.43;7.30;;;;;;;13.64;100.00;62258.13;5112476;28;20248;-72
2022/04/25 04:55:36;;;;;;;22.57;7.70;;;;;;;14.33;100.00;62332.31;5112461;28;20290;-72
2022/04/25 04:58:03;;;;;;;30.20;8.37;;;;;;;14.31;100.00;62335.28;5112372;28;20226;-71
2022/04/25 05:00:31;;;;;;;22.70;7.87;;;;;;;14.58;100.00;62353.00;5112648;28;20203;-73
2022/04/25 05:02:57;;;;;;;26.20;7.57;;;;;;;14.78;100.00;62377.59;5112615;28;20198;-71
2022/04/25 05:05:25;;;;;;;23.13;7.60;;;;;;;14.41;100.00;62342.94;5112314;28;20248;-72
2022/04/25 05:07:51;;;;;;;26.33;7.00;;;;;;;14.95;100.00;62395.38;5112347;28;20286;-72
2022/04/25 05:10:18;;;;;;;26.67;7.50;;;;;;;15.07;100.00;62410.84;5112237;28;20255;-72
2022/04/25 05:12:49;;;;;;;24.93;7.97;;;;;;;15.11;100.00;62418.22;5112503;28;20248;-73
2022/04/25 05:15:16;;;;;;;28.33;8.23;;;;;;;15.16;100.00;62421.06;5112399;28;20251;-72
2022/04/25 05:17:48;;;;;;;19.50;7.13;;;;;;;15.40;100.00;62450.94;5112198;28;20295;-73
2022/04/25 05:20:15;;;;;;;22.50;6.73;;;;;;;15.49;100.00;62456.06;5111691;28;20222;-72
2022/04/25 05:22:44;;;;;;;22.77;7.63;;;;;;;15.57;100.00;62464.69;5112098;28;20199;-73
2022/04/25 05:25:12;;;;;;;25.93;7.07;;;;;;;15.30;100.00;62435.56;5112163;28;20202;-72
2022/04/25 05:27:39;;;;;;;25.77;7.37;;;;;;;15.43;100.00;62452.16;5112374;28;20198;-71
2022/04/25 05:30:08;;;;;;;27.43;8.13;;;;;;;15.76;100.00;62484.56;5111786;28;20214;-73
2022/04/25 05:32:47;;;;;;;28.10;6.70;;;;;;;15.94;100.00;62504.50;5111893;28;20243;-72
2022/04/25 05:35:15;;;;;;;27.10;6.23;;;;;;;16.15;100.00;62523.47;5111701;28;20652;-72
2022/04/25 05:37:44;;;;;;;27.73;5.70;;;;;;;16.17;100.00;62528.75;5112105;28;20299;-71
2022/04/25 05:40:12;;;;;;;23.30;5.70;;;;;;;16.43;100.00;62561.34;5112064;28;20203;-72
2022/04/25 05:42:41;;;;;;;24.03;6.53;;;;;;;16.24;100.00;62530.59;5112230;28;20282;-72
2022/04/25 05:45:09;;;;;;;20.37;6.03;;;;;;;16.51;100.00;62564.84;5111663;28;20194;-72
2022/04/25 05:47:37;;;;;;;26.90;5.93;;;;;;;16.77;100.00;62595.44;5111816;28;20260;-72
2022/04/25 05:52:51;;;;;;;26.30;5.63;;;;;;;17.27;100.00;62651.38;5112075;28;20194;-72
2022/04/25 05:55:19;;;;;;;25.20;5.70;;;;;;;17.73;100.00;62697.91;5111770;28;20661;-71
2022/04/25 05:57:46;;;;;;;23.77;5.60;;;;;;;17.58;100.00;62680.22;5114521;28;20226;-72
2022/04/25 06:00:15;;;;;;;17.47;4.60;;;;;;;17.91;100.00;62715.28;5113976;28;20203;-73
2022/04/25 06:02:43;;;;;;;19.47;5.50;;;;;;;17.73;100.00;62696.41;5112077;28;20259;-71
2022/04/25 06:05:12;;;;;;;21.70;5.57;;;;;;;17.93;100.00;62722.06;5111601;28;20198;-73
2022/04/25 06:07:40;;;;;;;15.33;5.17;;;;;;;17.87;100.00;62705.28;5111667;28;20263;-71
2022/04/25 06:10:08;;;;;;;16.10;5.47;;;;;;;18.09;100.00;62729.00;5111334;28;20289;-72
2022/04/25 06:12:41;;;;;;;21.73;5.70;;;;;;;18.25;100.00;62751.44;5111521;28;20658;-72
2022/04/25 06:15:09;;;;;;;19.00;4.83;;;;;;;18.32;100.00;62756.41;5111729;28;20282;-72
2022/04/25 06:17:37;;;;;;;26.33;6.27;;;;;;;18.32;100.00;62761.56;5111511;28;20223;-72
2022/04/25 06:20:05;;;;;;;18.97;5.40;;;;;;;17.99;100.00;62723.38;5111377;28;20267;-72
2022/04/25 06:22:35;;;;;;;29.83;6.17;;;;;;;18.61;100.00;62790.31;5111787;28;20267;-72
2022/04/25 06:25:02;;;;;;;17.03;5.07;;;;;;;18.52;100.00;62780.59;5111823;28;20232;-73
2022/04/25 06:27:29;;;;;;;22.63;5.60;;;;;;;18.55;100.00;62786.41;5110437;28;20191;-71
2022/04/25 06:29:56;;;;;;;20.03;5.10;;;;;;;18.66;100.00;62795.72;5111671;28;20727;-72
2022/04/25 06:32:24;;;;;;;27.60;5.63;;;;;;;19.04;100.00;62836.19;5111292;28;20300;-73
2022/04/25 06:34:52;;;;;;;21.53;5.43;;;;;;;19.14;100.00;62852.72;5111650;28;20206;-73
2022/04/25 06:37:19;;;;;;;30.23;5.63;;;;;;;19.42;100.00;62881.91;5111212;28;20195;-72
2022/04/25 06:39:48;;;;;;;22.20;6.00;;;;;;;19.72;100.00;62909.16;5111159;28;20252;-72
2022/04/25 06:42:16;;;;;;;22.53;5.17;;;;;;;19.88;100.00;62926.44;5111348;28;20195;-72
2022/04/25 06:44:46;;;;;;;23.93;5.77;;;;;;;19.47;100.00;62887.84;5112636;28;20255;-75
2022/04/25 06:47:13;;;;;;;17.20;5.07;;;;;;;19.87;100.00;62922.78;5115025;28;20199;-73
2022/04/25 06:49:40;;;;;;;19.97;5.03;;;;;;;20.44;100.00;62987.03;5114873;28;20282;-71
2022/04/25 06:52:09;;;;;;;20.30;5.07;;;;;;;20.70;100.00;63015.13;5114830;28;20199;-72
2022/04/25 06:54:36;;;;;;;15.60;5.00;;;;;;;20.34;100.00;62978.25;5114791;28;20203;-72
2022/04/25 06:57:06;;;;;;;19.10;5.23;;;;;;;20.66;100.00;63016.00;5114221;28;20198;-71
2022/04/25 06:59:33;;;;;;;18.43;4.60;;;;;;;20.47;100.00;62994.88;5114680;28;20327;-72
2022/04/25 07:02:01;;;;;;;23.63;4.60;;;;;;;20.61;100.00;63005.41;5114806;28;20255;-71
2022/04/25 07:04:27;;;;;;;20.63;5.40;;;;;;;20.64;100.00;63008.66;5114548;28;20203;-73
2022/04/25 07:06:54;;;;;;;28.53;5.13;;;;;;;21.29;100.00;63077.91;5114422;28;20199;-72
2022/04/25 07:09:21;;;;;;;17.47;4.97;;;;;;;21.68;100.00;63120.13;5114329;28;20232;-72
2022/04/25 07:11:48;;;;;;;20.37;5.20;;;;;;;21.90;100.00;63143.97;5114449;28;20203;-73
2022/04/25 07:14:18;;;;;;;21.47;4.80;;;;;;;22.27;100.00;63184.03;5114440;28;20201;-72
2022/04/25 07:16:48;;;;;;;26.80;4.87;;;;;;;22.16;100.00;63172.13;5114446;28;20198;-75
2022/04/25 07:19:15;;;;;;;22.50;4.53;;;;;;;21.80;100.00;63133.13;5114165;27;20874;-72
2022/04/25 07:29:56;;;;;;;19.50;4.50;;;;;;;22.81;100.00;63241.47;5114466;28;20213;-71
2022/04/25 07:32:24;;;;;;;22.97;4.77;;;;;;;23.23;100.00;63287.56;5114072;28;20242;-73
2022/04/25 07:34:51;;;;;;;23.63;4.67;;;;;;;23.04;100.00;63271.63;5114203;28;20195;-72
2022/04/25 07:37:19;;;;;;;24.53;4.10;;;;;;;23.41;100.00;63301.34;5113857;28;20626;-73
2022/04/25 07:39:46;;;;;;;20.63;4.80;;;;;;;23.13;100.00;63281.38;5113864;28;20231;-71
2022/04/25 07:42:15;;;;;;;18.27;4.60;;;;;;;;;;5113678;28;20195;-72
2022/04/25 07:44:42;;;;;;;24.10;4.70;;;;;;;23.57;100.00;63323.91;5114288;28;20213;-73
2022/04/25 07:47:11;;;;;;;21.43;4.07;;;;;;;23.81;100.00;63349.94;5113745;28;20252;-72
2022/04/25 07:49:38;;;;;;;25.10;4.97;;;;;;;24.07;100.00;63372.41;5113690;28;20202;-72
2022/04/25 07:52:05;;;;;;;24.83;4.53;;;;;;;23.96;100.00;63366.22;5113628;28;20196;-72
2022/04/25 07:54:32;;;;;;;19.03;5.37;;;;;;;23.57;100.00;63323.91;5113510;28;20200;-72
2022/04/25 07:56:59;;;;;;;21.83;4.87;;;;;;;23.76;100.00;63344.50;5113058;28;20264;-71
2022/04/25 07:59:26;;;;;;;24.33;5.07;;;;;;;23.52;100.00;63313.81;5113695;28;20284;-73
2022/04/25 08:01:53;;;;;;;21.90;4.30;;;;;;;23.72;100.00;63344.84;5113634;28;20671;-73
2022/04/25 08:04:22;;;;;;;23.03;4.87;;;;;;;24.01;100.00;63371.63;5113710;28;20195;-71
2022/04/25 08:06:48;;;;;;;22.67;4.30;;;;;;;24.17;100.00;63386.41;5118084;28;20654;-72
2022/04/25 08:09:16;;;;;;;27.30;4.93;;;;;;;24.28;100.00;63406.16;5113316;28;20279;-72
2022/04/25 08:11:43;;;;;;;27.77;4.40;;;;;;;24.76;100.00;63446.75;5113296;28;20658;-72
2022/04/25 08:19:42;;;;;;;28.43;5.50;;;;;;;25.65;100.00;63548.66;5103610;28;20225;-72
2022/04/25 08:22:10;;;;;;;21.83;4.90;;;;;;;25.77;100.00;63561.69;5111974;28;20577;-72
2022/04/25 08:24:38;;;;;;;27.87;4.87;;;;;;;25.94;100.00;63579.63;5113087;28;20650;-72
2022/04/25 08:27:05;;;;;;;29.93;5.53;;;;;;;26.31;100.00;63616.69;5112964;28;20625;-71
2022/04/25 08:29:32;;;;;;;33.83;5.20;;;;;;;26.52;92.53;63636.91;5113301;28;20191;-73
2022/04/25 08:32:00;;;;;;;34.10;4.57;;;;;;;26.41;80.00;63630.19;5112879;28;20617;-72
2022/04/25 08:34:28;;;;;;;28.97;4.63;;;;;;;26.51;78.38;63641.59;5112902;28;20294;-74
2022/04/25 08:36:57;;;;;;;25.03;4.30;;;;;;;26.54;79.95;63644.31;5113016;28;20255;-72
2022/04/25 08:39:24;;;;;;;24.47;4.57;;;;;;;26.12;71.06;63598.66;5112960;28;20241;-72
2022/04/25 08:41:56;;;;;;;24.37;4.73;;;;;;;26.22;75.23;63612.16;5113055;28;20196;-73
2022/04/25 08:44:25;;;;;;;24.80;5.27;;;;;;;25.67;57.02;63550.84;5112894;28;20285;-72
2022/04/25 08:46:55;;;;;;;24.87;4.40;;;;;;;25.58;58.40;63533.22;5112550;28;20198;-72
2022/04/25 08:49:23;;;;;;;23.30;4.47;;;;;;;25.75;59.61;63556.91;5112287;28;20230;-71
2022/04/25 08:51:58;;;;;;;29.40;4.60;;;;;;;25.23;52.20;63497.81;5112437;28;20584;-73
2022/04/25 08:54:29;;;;;;;24.77;4.70;;;;;;;25.01;68.23;63476.53;5112412;28;20212;-73
2022/04/25 08:56:56;;;;;;;24.87;4.33;;;;;;;24.95;72.05;63472.63;5112389;28;20295;-73
2022/04/25 08:59:24;;;;;;;20.70;3.70;;;;;;;24.65;66.44;63437.94;5112208;28;20703;-72
2022/04/25 09:01:51;;;;;;;25.30;4.10;;;;;;;24.53;53.82;63427.53;5112638;28;20263;-72
2022/04/25 09:04:18;;;;;;;23.30;4.50;;;;;;;24.55;55.73;63429.16;5112447;28;20735;-73
2022/04/25 09:06:47;;;;;;;18.37;3.60;;;;;;;24.82;51.84;63453.28;5111978;28;20264;-73
2022/04/25 09:09:14;;;;;;;22.23;3.73;;;;;;;24.88;49.61;63459.78;5112104;28;20261;-72
2022/04/25 09:14:28;;;;;;;28.07;3.93;;;;;;;24.67;48.10;63440.13;5112532;28;20204;-72
2022/04/25 09:16:56;;;;;;;20.73;3.27;;;;;;;25.07;48.84;63485.66;5112269;28;20291;-72
2022/04/25 09:19:24;;;;;;;28.57;3.93;;;;;;;25.22;48.11;63498.75;5112143;28;20280;-72
2022/04/25 09:21:51;;;;;;;21.60;4.13;;;;;;;25.30;46.41;63510.06;5112241;28;20569;-74
2022/04/25 09:24:22;;;;;;;27.47;3.87;;;;;;;25.66;45.96;63549.75;5112089;28;20196;-74
2022/04/25 09:26:53;;;;;;;27.03;4.27;;;;;;;26.07;47.48;63588.00;5112279;28;20204;-72
2022/04/25 09:29:27;;;;;;;24.87;4.20;;;;;;;26.26;45.61;63616.50;5111862;28;20731;-72
2022/04/25 09:31:54;;;;;;;22.53;4.60;;;;;;;25.64;46.01;63544.94;5111780;28;20709;-71
2022/04/25 09:37:01;;;;;;;24.20;3.40;;;;;;;26.48;45.10;63637.81;5111536;28;20201;-72
2022/04/25 09:39:30;;;;;;;21.33;4.10;;;;;;;26.76;43.57;63668.78;5111948;28;20222;-72
2022/04/25 09:41:59;;;;;;;21.47;3.17;;;;;;;26.49;42.63;63636.25;5112097;28;20203;-71
2022/04/25 09:44:27;;;;;;;18.50;2.87;;;;;;;25.27;43.65;63509.97;5111864;28;20285;-73
2022/04/25 09:46:53;;;;;;;26.00;3.97;;;;;;;25.13;45.62;63492.16;5111936;28;20200;-72
2022/04/25 09:49:21;;;;;;;14.07;3.83;;;;;;;25.08;44.59;63486.72;5111405;28;20262;-74
2022/04/25 09:51:59;;;;;;;30.03;5.50;;;;;;;25.94;43.92;63577.56;5111638;28;20203;-72
2022/04/25 09:54:26;;;;;;;17.23;3.63;;;;;;;26.36;46.31;63619.53;5111540;28;20259;-72
2022/04/25 09:56:53;;;;;;;19.40;4.07;;;;;;;26.82;45.52;63674.78;5111510;28;20198;-73
2022/04/25 09:59:22;;;;;;;27.23;3.87;;;;;;;26.07;41.43;63588.00;5111646;28;20295;-72
2022/04/25 10:02:04;;;;;;;24.93;4.30;;;;;;;26.24;42.45;63611.72;5111572;28;20237;-73
2022/04/25 10:04:32;;;;;;;15.50;3.73;;;;;;;26.37;43.04;63623.22;5111668;28;20199;-71
2022/04/25 10:07:01;;;;;;;23.43;4.17;;;;;;;26.40;46.75;63626.50;5111498;28;20291;-72
2022/04/25 10:09:31;;;;;;;17.77;3.33;;;;;;;26.39;45.07;63628.56;5110396;28;20199;-73
2022/04/25 10:12:00;;;;;;;24.13;4.03;;;;;;;25.74;44.75;63558.44;5113672;28;20195;-72
2022/04/25 10:14:28;;;;;;;20.93;3.73;;;;;;;26.47;44.71;63634.09;5115359;28;20248;-73
2022/04/25 10:16:58;;;;;;;22.23;3.40;;;;;;;26.99;39.23;63693.28;5112124;28;20241;-72
2022/04/25 10:19:25;;;;;;;17.40;3.30;;;;;;;27.06;39.81;63703.50;5110959;28;20280;-72
2022/04/25 10:21:54;;;;;;;24.50;3.17;;;;;;;26.80;39.04;63672.63;5115605;28;20199;-72
2022/04/25 10:24:21;;;;;;;21.37;3.00;;;;;;;26.41;39.57;63624.97;5115211;28;20202;-73
2022/04/25 10:26:49;;;;;;;23.60;2.93;;;;;;;25.92;40.60;63580.59;5115272;28;20191;-73
2022/04/25 10:29:21;;;;;;;16.00;2.83;;;;;;;25.45;41.49;63526.38;5115160;28;20688;-74
2022/04/25 10:31:57;;;;;;;14.87;3.40;;;;;;;25.82;42.80;63569.72;5115576;28;20234;-73
2022/04/25 10:34:46;;;;;;;24.53;4.07;;;;;;;25.98;43.80;63588.66;5115331;28;20204;-74
2022/04/25 10:37:32;;;;;;;24.77;3.83;;;;;;;26.71;40.05;63663.38;5115027;28;20677;-73
2022/04/25 10:40:00;;;;;;;20.23;3.90;;;;;;;27.04;40.20;63693.50;5115069;28;20256;-73
2022/04/25 10:45:13;;;;;;;19.07;3.83;;;;;;;26.76;35.79;63668.28;5115241;28;20206;-73
2022/04/25 10:47:58;;;;;;;22.17;3.43;;;;;;;27.31;34.62;63728.09;5114950;28;20255;-72
2022/04/25 10:50:26;;;;;;;15.83;3.43;;;;;;;27.27;35.07;63723.19;5114793;28;20221;-73
2022/04/25 10:53:01;;;;;;;14.43;3.17;;;;;;;27.07;34.46;63701.97;5114945;28;20661;-72
2022/04/25 10:55:46;;;;;;;14.43;2.67;;;;;;;26.82;35.33;63674.25;5114868;28;20244;-73
2022/04/25 10:58:20;;;;;;;9.83;2.57;;;;;;;25.98;35.27;63583.44;5114798;28;20205;-73
2022/04/25 11:00:54;;;;;;;19.53;3.73;;;;;;;26.58;37.00;63649.19;5114981;28;20295;-72
2022/04/25 11:03:57;;;;;;;17.90;3.20;;;;;;;27.06;38.01;63700.34;5114520;28;20205;-71
2022/04/25 11:06:25;;;;;;;13.87;3.07;;;;;;;27.36;35.21;63733.56;5114283;28;20749;-73
2022/04/25 11:08:53;;;;;;;18.43;3.20;;;;;;;27.32;34.95;63729.19;5114527;28;20662;-73
2022/04/25 11:11:25;;;;;;;18.37;3.60;;;;;;;27.19;36.66;63715.03;5113447;28;20293;-72
2022/04/25 11:14:11;;;;;;;22.70;3.60;;;;;;;27.06;36.23;63703.50;5114619;28;20209;-72
2022/04/25 11:16:39;;;;;;;23.33;3.20;;;;;;;26.22;33.93;63607.44;5114323;28;20202;-72
2022/04/25 11:19:21;;;;;;;29.97;3.53;;;;;;;26.49;34.66;63633.66;5114702;28;20231;-72
2022/04/25 11:21:50;;;;;;;14.67;2.80;;;;;;;26.61;33.64;63651.94;5114559;28;20609;-73
2022/04/25 11:24:43;;;;;;;13.50;3.07;;;;;;;26.94;33.28;63685.22;5114460;28;20210;-71
2022/04/25 11:27:12;;;;;;;21.77;2.73;;;;;;;26.80;33.80;63675.22;5066113;28;20199;-73
2022/04/25 11:29:47;;;;;;;15.37;2.80;;;;;;;26.47;32.31;63634.09;5114844;28;20199;-71
2022/04/25 11:32:25;;;;;;;19.77;3.40;;;;;;;26.38;32.50;63624.31;5113829;28;20705;-72
2022/04/25 11:34:58;;;;;;;13.17;2.60;;;;;;;25.17;33.62;63495.94;5114116;28;20201;-72
2022/04/25 11:37:26;;;;;;;17.93;2.70;;;;;;;24.97;33.67;63474.78;5114124;28;20198;-72
2022/04/25 11:40:01;;;;;;;18.77;2.60;;;;;;;24.65;34.52;63440.03;5113841;28;20229;-73
2022/04/25 11:42:32;;;;;;;12.57;2.43;;;;;;;24.39;35.60;63411.81;5113848;28;20199;-71
2022/04/25 11:45:00;;;;;;;23.00;2.87;;;;;;;24.14;35.77;63385.75;5114251;28;20195;-73
2022/04/25 11:47:29;;;;;;;7.07;2.63;;;;;;;24.19;35.02;63391.19;5113702;27;20199;-73
2022/04/25 11:50:03;;;;;;;17.10;3.10;;;;;;;24.70;34.84;63448.59;5112535;28;20686;-71
2022/04/25 11:52:30;;;;;;;13.63;2.77;;;;;;;25.56;34.05;63536.25;5114478;28;20204;-73
2022/04/25 11:54:57;;;;;;;7.47;2.40;;;;;;;26.09;34.61;63595.41;5114119;28;20193;-72
2022/04/25 11:57:26;;;;;;;15.60;2.67;;;;;;;25.84;32.84;63569.28;5113886;28;20655;-72
2022/04/25 12:00:11;;;;;;;13.20;2.57;;;;;;;25.55;32.97;63537.78;5113489;28;20766;-71
2022/04/25 12:02:39;;;;;;;18.17;3.70;;;;;;;25.41;34.03;63517.38;5113545;28;20239;-73